Wetterdaten: Woche 16.01.23 - 22.01.23 (KW3)
Datum Zeit Temp. A. Feuchte A. Luftdruck Regen Wind Richtung Taupunkt Windchill
16.01.2023 00:00 3,1 C 82 % 1008 hPa 0,0 l/m 0,0 km/h (0 Bft) SW 0,4 C 3,1 C
16.01.2023 01:00 2,8 C 84 % 1007 hPa 0,0 l/m 1,0 km/h (0 Bft) S-SW 0,3 C 2,8 C
16.01.2023 02:00 2,4 C 84 % 1006 hPa 0,0 l/m 0,0 km/h (0 Bft) S-SW -0,2 C 2,4 C
16.01.2023 03:00 1,9 C 83 % 1005 hPa 0,0 l/m 0,0 km/h (0 Bft) S-SW -0,7 C 1,9 C
16.01.2023 04:00 2,0 C 84 % 1004 hPa 0,0 l/m 0,0 km/h (0 Bft) SO -0,4 C 2,0 C
16.01.2023 05:00 2,2 C 83 % 1003 hPa 0,0 l/m 0,2 km/h (0 Bft) S-SO -0,4 C 2,2 C
16.01.2023 06:00 2,0 C 83 % 1002 hPa 0,0 l/m 1,3 km/h (1 Bft) S -0,5 C 1,8 C
16.01.2023 07:00 1,5 C 84 % 1002 hPa 0,0 l/m 0,0 km/h (0 Bft) S-SO -1,0 C 1,5 C
16.01.2023 08:00 1,6 C 83 % 1001 hPa 0,0 l/m 2,9 km/h (1 Bft) SO -0,9 C 0,7 C
16.01.2023 09:00 1,7 C 84 % 1000 hPa 0,0 l/m 0,0 km/h (0 Bft) S-SO -0,7 C 1,7 C
16.01.2023 10:00 3,3 C 82 % 999 hPa 0,0 l/m 4,7 km/h (1 Bft) S-SO 0,5 C 1,4 C
16.01.2023 11:00 4,8 C 77 % 997 hPa 0,0 l/m 4,6 km/h (1 Bft) SO 1,0 C 3,8 C
16.01.2023 12:00 5,1 C 75 % 996 hPa 0,0 l/m 3,9 km/h (1 Bft) S-SO 1,1 C 4,5 C
16.01.2023 13:00 6,2 C 70 % 994 hPa 0,0 l/m 8,7 km/h (2 Bft) S-SO 1,1 C 4,0 C
16.01.2023 14:00 6,1 C 67 % 993 hPa 0,0 l/m 4,1 km/h (1 Bft) S-SO 0,5 C 4,7 C
16.01.2023 15:00 6,5 C 65 % 992 hPa 0,0 l/m 0,8 km/h (0 Bft) S-SO 0,5 C 6,5 C
16.01.2023 16:00 5,9 C 64 % 992 hPa 0,0 l/m 11,5 km/h (2 Bft) SO -0,4 C 2,3 C
16.01.2023 17:00 5,0 C 66 % 990 hPa 0,0 l/m 6,7 km/h (2 Bft) S-SO -0,8 C 2,7 C
16.01.2023 18:00 4,6 C 69 % 989 hPa 0,0 l/m 8,4 km/h (2 Bft) S -0,5 C 2,3 C
16.01.2023 19:00 4,4 C 69 % 988 hPa 0,0 l/m 9,4 km/h (2 Bft) S-SO -0,7 C 1,4 C
16.01.2023 20:00 4,3 C 70 % 987 hPa 0,0 l/m 2,4 km/h (1 Bft) S -0,7 C 3,4 C
16.01.2023 21:00 4,5 C 71 % 987 hPa 0,0 l/m 7,1 km/h (2 Bft) SW -0,3 C 2,6 C
16.01.2023 22:00 3,9 C 75 % 986 hPa 0,0 l/m 1,6 km/h (1 Bft) W-SW -0,1 C 3,9 C
16.01.2023 23:00 3,9 C 77 % 986 hPa 0,0 l/m 0,0 km/h (0 Bft) S 0,2 C 3,9 C
17.01.2023 00:00 3,6 C 79 % 986 hPa 0,0 l/m 6,1 km/h (2 Bft) S-SW 0,3 C 1,9 C
17.01.2023 01:00 3,3 C 80 % 986 hPa 0,0 l/m 3,7 km/h (1 Bft) S-SW 0,2 C 2,2 C
17.01.2023 02:00 3,5 C 81 % 987 hPa 0,0 l/m 0,0 km/h (0 Bft) W-NW 0,4 C 3,5 C
17.01.2023 03:00 3,3 C 82 % 988 hPa 0,0 l/m 1,1 km/h (1 Bft) SW 0,5 C 3,3 C
17.01.2023 04:00 3,0 C 81 % 988 hPa 0,0 l/m 1,4 km/h (1 Bft) SW 0,1 C 2,9 C
17.01.2023 05:00 2,7 C 82 % 989 hPa 0,0 l/m 1,4 km/h (1 Bft) SW -0,1 C 2,3 C
17.01.2023 06:00 2,5 C 82 % 990 hPa 0,0 l/m 2,1 km/h (1 Bft) W -0,2 C 2,2 C
17.01.2023 07:00 2,5 C 81 % 991 hPa 0,0 l/m 0,6 km/h (0 Bft) W -0,4 C 2,5 C
17.01.2023 08:00 2,2 C 80 % 992 hPa 0,0 l/m 1,3 km/h (1 Bft) W-SW -1,0 C 2,2 C
17.01.2023 09:00 1,9 C 77 % 992 hPa 0,0 l/m 2,0 km/h (1 Bft) W -1,6 C 1,1 C
17.01.2023 10:00 2,7 C 74 % 993 hPa 0,0 l/m 3,0 km/h (1 Bft) W-NW -1,4 C 2,0 C
17.01.2023 11:00 3,5 C 72 % 993 hPa 0,0 l/m 0,0 km/h (0 Bft) W -1,1 C 3,5 C
17.01.2023 12:00 3,4 C 71 % 993 hPa 0,0 l/m 0,0 km/h (0 Bft) W -1,3 C 3,4 C
17.01.2023 13:00 3,4 C 71 % 993 hPa 0,0 l/m 0,2 km/h (0 Bft) W-SW -1,4 C 3,4 C
17.01.2023 14:00 3,3 C 71 % 993 hPa 0,0 l/m 0,0 km/h (0 Bft) W-SW -1,5 C 3,3 C
17.01.2023 15:00 3,4 C 70 % 993 hPa 0,0 l/m 0,0 km/h (0 Bft) S-SO -1,7 C 3,4 C
17.01.2023 16:00 2,8 C 70 % 993 hPa 0,0 l/m 0,0 km/h (0 Bft) S-SO -2,1 C 2,8 C
17.01.2023 17:00 1,4 C 71 % 993 hPa 0,0 l/m 0,0 km/h (0 Bft) S-SO -3,2 C 1,4 C
17.01.2023 18:00 0,2 C 73 % 993 hPa 0,0 l/m 0,0 km/h (0 Bft) S-SO -4,2 C 0,2 C
17.01.2023 19:00 -0,6 C 75 % 994 hPa 0,0 l/m 0,0 km/h (0 Bft) S-SO -4,5 C -0,6 C
17.01.2023 20:00 -0,8 C 75 % 994 hPa 0,0 l/m 0,0 km/h (0 Bft) S-SO -4,6 C -0,8 C
17.01.2023 21:00 -1,5 C 77 % 994 hPa 0,0 l/m 0,0 km/h (0 Bft) S-SO -5,1 C -1,5 C
17.01.2023 22:00 -1,9 C 77 % 994 hPa 0,0 l/m 0,0 km/h (0 Bft) S-SO -5,4 C -1,9 C
17.01.2023 23:00 -2,1 C 79 % 994 hPa 0,0 l/m 0,0 km/h (0 Bft) S-SO -5,3 C -2,1 C
18.01.2023 00:00 -2,3 C 79 % 994 hPa 0,0 l/m 0,0 km/h (0 Bft) S-SO -5,4 C -2,3 C
18.01.2023 01:00 -2,4 C 80 % 994 hPa 0,0 l/m 0,0 km/h (0 Bft) S-SO -5,4 C -2,4 C
18.01.2023 02:00 -1,9 C 82 % 994 hPa 0,0 l/m 0,0 km/h (0 Bft) S-SO -4,6 C -1,9 C
18.01.2023 03:00 -0,7 C 83 % 994 hPa 0,0 l/m 0,0 km/h (0 Bft) N-NO -3,2 C -0,7 C
18.01.2023 04:00 -0,4 C 83 % 994 hPa 0,0 l/m 3,1 km/h (1 Bft) N-NO -2,9 C -1,3 C
18.01.2023 05:00 -0,4 C 83 % 994 hPa 0,0 l/m 4,0 km/h (1 Bft) N-NO -2,9 C -1,6 C
18.01.2023 06:00 -0,5 C 85 % 995 hPa 0,0 l/m 2,8 km/h (1 Bft) N-NO -2,7 C -1,1 C
18.01.2023 07:00 -0,4 C 86 % 995 hPa 0,0 l/m 12,6 km/h (3 Bft) N -2,4 C -5,4 C
18.01.2023 08:00 -0,3 C 86 % 996 hPa 0,0 l/m 6,1 km/h (2 Bft) N-NO -2,3 C -1,9 C
18.01.2023 09:00 -0,5 C 87 % 996 hPa 0,0 l/m 4,8 km/h (1 Bft) N -2,4 C -1,9 C
18.01.2023 10:00 -0,7 C 88 % 997 hPa 0,0 l/m 5,7 km/h (1 Bft) N -2,4 C -2,3 C
18.01.2023 11:00 -0,4 C 89 % 998 hPa 0,0 l/m 2,2 km/h (1 Bft) N -2,0 C -0,6 C
18.01.2023 12:00 0,0 C 89 % 999 hPa 0,0 l/m 0,0 km/h (0 Bft) N -1,6 C 0,0 C
18.01.2023 13:00 0,1 C 89 % 999 hPa 0,0 l/m 0,0 km/h (0 Bft) N -1,4 C 0,1 C
18.01.2023 14:00 0,1 C 89 % 1000 hPa 0,0 l/m 0,0 km/h (0 Bft) N-NO -1,5 C 0,1 C
18.01.2023 15:00 -0,1 C 88 % 1001 hPa 0,0 l/m 0,0 km/h (0 Bft) N -1,9 C -0,1 C
18.01.2023 16:00 -0,4 C 88 % 1002 hPa 0,0 l/m 0,0 km/h (0 Bft) NW -2,2 C -0,4 C
18.01.2023 17:00 -0,8 C 88 % 1003 hPa 0,0 l/m 0,0 km/h (0 Bft) NW -2,5 C -0,8 C
18.01.2023 18:00 -1,5 C 88 % 1004 hPa 0,0 l/m 0,0 km/h (0 Bft) NW -3,2 C -1,5 C
18.01.2023 19:00 -2,2 C 89 % 1005 hPa 0,0 l/m 0,0 km/h (0 Bft) NW -3,8 C -2,2 C
18.01.2023 20:00 -3,0 C 88 % 1006 hPa 0,0 l/m 0,0 km/h (0 Bft) NW -4,7 C -3,0 C
18.01.2023 21:00 -3,8 C 89 % 1006 hPa 0,0 l/m 0,0 km/h (0 Bft) NW -5,3 C -3,8 C
18.01.2023 22:00 -4,4 C 89 % 1007 hPa 0,0 l/m 0,0 km/h (0 Bft) NW -5,9 C -4,4 C
18.01.2023 23:00 -4,5 C 89 % 1008 hPa 0,0 l/m 0,0 km/h (0 Bft) NW -6,0 C -4,5 C
19.01.2023 00:00 -5,0 C 89 % 1008 hPa 0,0 l/m 0,0 km/h (0 Bft) NW -6,5 C -5,0 C
19.01.2023 01:00 -5,1 C 89 % 1008 hPa 0,0 l/m 0,0 km/h (0 Bft) SW -6,6 C -5,1 C
19.01.2023 02:00 -5,5 C 89 % 1009 hPa 0,0 l/m 0,0 km/h (0 Bft) S-SW -7,1 C -5,5 C
19.01.2023 03:00 -5,7 C 89 % 1009 hPa 0,0 l/m 0,0 km/h (0 Bft) S-SO -7,2 C -5,7 C
19.01.2023 04:00 -5,8 C 89 % 1009 hPa 0,0 l/m 0,0 km/h (0 Bft) W-SW -7,3 C -5,8 C
19.01.2023 05:00 -5,3 C 89 % 1009 hPa 0,0 l/m 0,0 km/h (0 Bft) S -6,9 C -5,3 C
19.01.2023 06:00 -4,8 C 89 % 1009 hPa 0,0 l/m 0,0 km/h (0 Bft) S-SO -6,4 C -4,8 C
19.01.2023 07:00 -5,1 C 89 % 1009 hPa 0,0 l/m 0,0 km/h (0 Bft) NO -6,6 C -5,1 C
19.01.2023 08:00 -5,0 C 89 % 1010 hPa 0,0 l/m 0,0 km/h (0 Bft) S-SO -6,6 C -5,0 C
19.01.2023 09:00 -4,5 C 89 % 1010 hPa 0,0 l/m 0,0 km/h (0 Bft) NO -6,0 C -4,5 C
19.01.2023 10:00 -3,0 C 90 % 1010 hPa 0,0 l/m 0,0 km/h (0 Bft) S -4,4 C -3,0 C
19.01.2023 11:00 -1,1 C 90 % 1010 hPa 0,0 l/m 0,0 km/h (0 Bft) S -2,6 C -1,1 C
19.01.2023 12:00 0,0 C 88 % 1010 hPa 0,5 l/m 0,0 km/h (0 Bft) SW -1,7 C 0,0 C
19.01.2023 13:00 0,8 C 87 % 1010 hPa 0,0 l/m 0,0 km/h (0 Bft) SW -1,1 C 0,8 C
19.01.2023 14:00 1,0 C 83 % 1010 hPa 0,0 l/m 1,0 km/h (0 Bft) W-SW -1,5 C 1,0 C
19.01.2023 15:00 0,6 C 82 % 1010 hPa 0,0 l/m 0,0 km/h (0 Bft) SW -2,1 C 0,6 C
19.01.2023 16:00 0,1 C 83 % 1010 hPa 0,0 l/m 0,6 km/h (0 Bft) W-SW -2,4 C 0,1 C
19.01.2023 17:00 -0,1 C 84 % 1011 hPa 0,0 l/m 0,0 km/h (0 Bft) S -2,5 C -0,1 C
19.01.2023 18:00 -0,1 C 85 % 1011 hPa 0,0 l/m 0,0 km/h (0 Bft) W -2,4 C -0,1 C
19.01.2023 19:00 -0,3 C 86 % 1012 hPa 0,0 l/m 0,0 km/h (0 Bft) W-SW -2,4 C -0,3 C
19.01.2023 20:00 -0,4 C 87 % 1012 hPa 0,0 l/m 0,0 km/h (0 Bft) W-SW -2,2 C -0,4 C
19.01.2023 21:00 -0,5 C 88 % 1013 hPa 0,0 l/m 0,0 km/h (0 Bft) S -2,2 C -0,5 C
19.01.2023 22:00 -0,7 C 88 % 1013 hPa 0,0 l/m 0,0 km/h (0 Bft) S -2,4 C -0,7 C
19.01.2023 23:00 -1,1 C 89 % 1014 hPa 0,0 l/m 0,0 km/h (0 Bft) S -2,6 C -1,1 C
20.01.2023 00:00 -1,4 C 89 % 1014 hPa 0,0 l/m 0,0 km/h (0 Bft) S -3,0 C -1,4 C
20.01.2023 01:00 -1,8 C 89 % 1014 hPa 0,0 l/m 0,0 km/h (0 Bft) S -3,4 C -1,8 C
20.01.2023 02:00 -2,3 C 89 % 1015 hPa 0,0 l/m 0,0 km/h (0 Bft) S -3,9 C -2,3 C
20.01.2023 03:00 -2,5 C 89 % 1015 hPa 0,0 l/m 0,0 km/h (0 Bft) S -4,0 C -2,5 C
20.01.2023 04:00 -1,9 C 90 % 1016 hPa 0,0 l/m 0,0 km/h (0 Bft) S -3,4 C -1,9 C
20.01.2023 05:00 -1,8 C 90 % 1016 hPa 0,0 l/m 0,0 km/h (0 Bft) S -3,2 C -1,8 C
20.01.2023 06:00 -2,2 C 90 % 1017 hPa 0,0 l/m 0,0 km/h (0 Bft) S -3,6 C -2,2 C
20.01.2023 07:00 -2,8 C 90 % 1017 hPa 0,0 l/m 0,0 km/h (0 Bft) S -4,2 C -2,8 C
20.01.2023 08:00 -3,1 C 90 % 1018 hPa 0,0 l/m 0,0 km/h (0 Bft) S -4,5 C -3,1 C
20.01.2023 09:00 -2,7 C 90 % 1019 hPa 0,0 l/m 0,0 km/h (0 Bft) S -4,1 C -2,7 C
20.01.2023 10:00 -1,7 C 91 % 1020 hPa 0,0 l/m 0,0 km/h (0 Bft) S -2,9 C -1,7 C
20.01.2023 11:00 0,1 C 91 % 1020 hPa 0,0 l/m 0,0 km/h (0 Bft) S -1,1 C 0,1 C
20.01.2023 12:00 0,9 C 90 % 1020 hPa 0,0 l/m 0,0 km/h (0 Bft) S -0,5 C 0,9 C
20.01.2023 13:00 2,2 C 89 % 1021 hPa 0,0 l/m 0,0 km/h (0 Bft) S 0,6 C 2,2 C
20.01.2023 14:00 2,0 C 87 % 1021 hPa 0,0 l/m 0,0 km/h (0 Bft) W-SW 0,0 C 2,0 C
20.01.2023 15:00 1,5 C 85 % 1022 hPa 0,0 l/m 0,0 km/h (0 Bft) N-NW -0,9 C 1,5 C
20.01.2023 16:00 0,2 C 84 % 1022 hPa 0,0 l/m 0,0 km/h (0 Bft) N-NW -2,2 C 0,2 C
20.01.2023 17:00 -1,1 C 85 % 1023 hPa 0,0 l/m 0,0 km/h (0 Bft) O -3,4 C -1,1 C
20.01.2023 18:00 -2,4 C 85 % 1024 hPa 0,0 l/m 0,0 km/h (0 Bft) O -4,5 C -2,4 C
20.01.2023 19:00 -3,3 C 86 % 1024 hPa 0,0 l/m 0,0 km/h (0 Bft) O -5,2 C -3,3 C
20.01.2023 20:00 -3,9 C 86 % 1025 hPa 0,0 l/m 0,0 km/h (0 Bft) O -5,9 C -3,9 C
20.01.2023 21:00 -4,2 C 87 % 1025 hPa 0,0 l/m 0,0 km/h (0 Bft) O -6,0 C -4,2 C
20.01.2023 22:00 -4,5 C 87 % 1026 hPa 0,0 l/m 0,0 km/h (0 Bft) O -6,3 C -4,5 C
20.01.2023 23:00 -5,0 C 88 % 1026 hPa 0,0 l/m 0,0 km/h (0 Bft) O -6,7 C -5,0 C
21.01.2023 00:00 -4,5 C 89 % 1027 hPa 0,0 l/m 0,0 km/h (0 Bft) O -6,0 C -4,5 C
21.01.2023 01:00 -3,8 C 89 % 1027 hPa 0,0 l/m 0,0 km/h (0 Bft) O -5,3 C -3,8 C
21.01.2023 02:00 -2,1 C 90 % 1028 hPa 0,0 l/m 0,0 km/h (0 Bft) N-NO -3,5 C -2,1 C
21.01.2023 03:00 -1,9 C 91 % 1028 hPa 0,0 l/m 1,2 km/h (1 Bft) N -3,1 C -2,0 C
21.01.2023 04:00 -1,9 C 91 % 1028 hPa 0,0 l/m 2,0 km/h (1 Bft) N-NO -3,2 C -1,9 C
21.01.2023 05:00 -2,5 C 91 % 1028 hPa 0,0 l/m 6,3 km/h (2 Bft) N-NO -3,8 C -4,8 C
21.01.2023 06:00 -3,2 C 91 % 1029 hPa 0,0 l/m 5,3 km/h (1 Bft) N -4,4 C -4,7 C
21.01.2023 07:00 -3,2 C 92 % 1030 hPa 0,0 l/m 2,8 km/h (1 Bft) N-NO -4,3 C -3,9 C
21.01.2023 08:00 -3,0 C 92 % 1030 hPa 0,0 l/m 0,0 km/h (0 Bft) N-NO -4,1 C -3,0 C
21.01.2023 09:00 -2,6 C 92 % 1030 hPa 0,0 l/m 2,9 km/h (1 Bft) N -3,7 C -4,2 C
21.01.2023 10:00 -2,3 C 92 % 1030 hPa 0,0 l/m 1,1 km/h (1 Bft) N -3,4 C -2,3 C
21.01.2023 11:00 -2,0 C 93 % 1030 hPa 0,0 l/m 6,5 km/h (2 Bft) N -3,0 C -4,2 C
21.01.2023 12:00 -1,7 C 92 % 1030 hPa 0,0 l/m 6,4 km/h (2 Bft) N -2,8 C -3,7 C
21.01.2023 13:00 -1,4 C 92 % 1030 hPa 0,0 l/m 0,8 km/h (0 Bft) N -2,6 C -1,4 C
21.01.2023 14:00 -1,0 C 92 % 1030 hPa 0,0 l/m 1,6 km/h (1 Bft) NW -2,2 C -1,5 C
21.01.2023 15:00 -0,7 C 91 % 1030 hPa 0,0 l/m 3,1 km/h (1 Bft) N -2,0 C -1,6 C
21.01.2023 16:00 -0,5 C 91 % 1029 hPa 0,0 l/m 6,0 km/h (2 Bft) N -1,8 C -2,1 C
21.01.2023 17:00 -0,3 C 90 % 1028 hPa 0,0 l/m 0,0 km/h (0 Bft) N -1,7 C -0,3 C
21.01.2023 18:00 -0,4 C 91 % 1028 hPa 0,0 l/m 0,0 km/h (0 Bft) N -1,7 C -0,4 C
21.01.2023 19:00 -0,4 C 92 % 1028 hPa 0,0 l/m 0,0 km/h (0 Bft) N -1,5 C -0,4 C
21.01.2023 20:00 -0,4 C 92 % 1028 hPa 0,0 l/m 0,0 km/h (0 Bft) N -1,5 C -0,4 C
21.01.2023 21:00 -0,4 C 93 % 1028 hPa 0,0 l/m 0,0 km/h (0 Bft) N -1,5 C -0,4 C
21.01.2023 22:00 -0,5 C 93 % 1028 hPa 0,0 l/m 0,0 km/h (0 Bft) N -1,5 C -0,5 C
21.01.2023 23:00 -0,4 C 93 % 1028 hPa 0,0 l/m 0,0 km/h (0 Bft) N-NO -1,4 C -0,4 C
22.01.2023 00:00 -0,4 C 93 % 1029 hPa 0,0 l/m 0,0 km/h (0 Bft) N -1,4 C -0,4 C
22.01.2023 01:00 -0,5 C 93 % 1029 hPa 0,0 l/m 0,0 km/h (0 Bft) N-NO -1,4 C -0,5 C
22.01.2023 02:00 -0,5 C 93 % 1029 hPa 0,0 l/m 0,0 km/h (0 Bft) N -1,5 C -0,5 C
22.01.2023 03:00 -0,5 C 94 % 1029 hPa 0,0 l/m 0,0 km/h (0 Bft) N -1,4 C -0,5 C
22.01.2023 04:00 -0,5 C 94 % 1029 hPa 0,0 l/m 0,0 km/h (0 Bft) N-NO -1,3 C -0,5 C
22.01.2023 05:00 -0,5 C 94 % 1029 hPa 0,0 l/m 0,0 km/h (0 Bft) N -1,3 C -0,5 C
22.01.2023 06:00 -0,5 C 94 % 1030 hPa 0,0 l/m 0,0 km/h (0 Bft) N-NO -1,3 C -0,5 C
22.01.2023 07:00 -0,4 C 94 % 1030 hPa 0,0 l/m 0,0 km/h (0 Bft) N -1,3 C -0,4 C
22.01.2023 08:00 -0,5 C 94 % 1030 hPa 0,0 l/m 0,0 km/h (0 Bft) N -1,3 C -0,5 C
22.01.2023 09:00 -0,4 C 94 % 1031 hPa 0,0 l/m 0,0 km/h (0 Bft) N-NO -1,2 C -0,4 C
22.01.2023 10:00 -0,2 C 94 % 1032 hPa 0,0 l/m 0,0 km/h (0 Bft) NW -1,0 C -0,2 C
22.01.2023 11:00 -0,1 C 94 % 1032 hPa 0,0 l/m 0,0 km/h (0 Bft) O-NO -0,9 C -0,1 C
22.01.2023 12:00 0,1 C 94 % 1032 hPa 0,0 l/m 0,0 km/h (0 Bft) N-NO -0,8 C 0,1 C
22.01.2023 13:00 0,0 C 94 % 1032 hPa 0,0 l/m 0,0 km/h (0 Bft) N-NO -0,8 C 0,0 C
22.01.2023 14:00 -0,0 C 94 % 1032 hPa 0,0 l/m 0,0 km/h (0 Bft) N -0,9 C -0,0 C
22.01.2023 15:00 -0,0 C 94 % 1032 hPa 0,0 l/m 0,0 km/h (0 Bft) N-NO -0,9 C -0,0 C
22.01.2023 16:00 -0,1 C 94 % 1033 hPa 0,0 l/m 0,0 km/h (0 Bft) SW -0,9 C -0,1 C
22.01.2023 17:00 -0,3 C 94 % 1033 hPa 0,0 l/m 0,0 km/h (0 Bft) N -1,1 C -0,3 C
22.01.2023 18:00 -0,4 C 94 % 1034 hPa 0,0 l/m 0,0 km/h (0 Bft) N-NO -1,2 C -0,4 C
22.01.2023 19:00 -0,2 C 94 % 1034 hPa 0,0 l/m 0,0 km/h (0 Bft) N-NO -1,1 C -0,2 C
22.01.2023 20:00 -0,2 C 94 % 1034 hPa 0,0 l/m 0,0 km/h (0 Bft) N-NO -1,0 C -0,2 C
22.01.2023 21:00 -0,4 C 94 % 1035 hPa 0,0 l/m 0,0 km/h (0 Bft) N -1,2 C -0,4 C
22.01.2023 22:00 -0,4 C 94 % 1035 hPa 0,0 l/m 0,0 km/h (0 Bft) N-NO -1,2 C -0,4 C
22.01.2023 23:00 -0,4 C 94 % 1036 hPa 0,0 l/m 0,0 km/h (0 Bft) O -1,2 C -0,4 C
Min-Datum _ 19.01.23 16.01.23 17.01.23 - 22.01.23 - 19.01.23 21.01.23
_ Min-Zeit 04:33 16:03 01:03 - 23:03 - 04:33 09:03
Minimum _ -5,9 C 63 % 986 hPa - 0,0 km/h (0 Bft) - -7,4 C -11,8 C
Max-Datum _ 16.01.23 22.01.23 22.01.23 19.01.23 16.01.23 - 16.01.23 16.01.23
_ Max-Zeit 15:43 23:03 23:13 12:33 18:43 - 13:13 15:43
Maximum _ 6,9 C 94 % 1036 hPa 0,5 l/m 21,2 km/h
S (4 Bft)
- 1,4 C 6,9 C
Durchschnitt _ -0,3 C 86 % 1011 hPa #0,5 l/m 1,1 km/h (1 Bft) N -2,4 C -0,6 C